sensor_id;sensor_type;location;lat;lon;timestamp;pressure;altitude;pressure_sealevel;temperature;humidity
78584;BME280;67880;46.082;18.234;2023-08-30T00:00:29;98452.34;;;20.00;71.22
78584;BME280;67880;46.082;18.234;2023-08-30T00:01:01;98453.44;;;19.99;70.79
78584;BME280;67880;46.082;18.234;2023-08-30T00:01:33;98455.41;;;20.04;71.06
78584;BME280;67880;46.082;18.234;2023-08-30T00:02:05;98445.81;;;20.01;71.42
78584;BME280;67880;46.082;18.234;2023-08-30T00:02:37;98447.72;;;20.00;71.49
78584;BME280;67880;46.082;18.234;2023-08-30T00:03:09;98456.41;;;19.97;71.06
78584;BME280;67880;46.082;18.234;2023-08-30T00:03:41;98464.25;;;19.94;71.50
78584;BME280;67880;46.082;18.234;2023-08-30T00:04:13;98464.50;;;19.92;71.27
78584;BME280;67880;46.082;18.234;2023-08-30T00:04:45;98462.25;;;19.89;71.71
78584;BME280;67880;46.082;18.234;2023-08-30T00:05:17;98462.25;;;19.89;71.77
78584;BME280;67880;46.082;18.234;2023-08-30T00:05:50;98463.69;;;19.92;71.60
78584;BME280;67880;46.082;18.234;2023-08-30T00:06:22;98466.97;;;19.94;71.28
78584;BME280;67880;46.082;18.234;2023-08-30T00:06:54;98467.78;;;19.94;71.79
78584;BME280;67880;46.082;18.234;2023-08-30T00:07:26;98464.75;;;19.91;71.28
78584;BME280;67880;46.082;18.234;2023-08-30T00:07:58;98470.94;;;19.86;71.68
78584;BME280;67880;46.082;18.234;2023-08-30T00:08:31;98461.22;;;19.90;71.51
78584;BME280;67880;46.082;18.234;2023-08-30T00:09:03;98459.53;;;19.89;71.40
78584;BME280;67880;46.082;18.234;2023-08-30T00:09:35;98462.50;;;19.88;71.81
78584;BME280;67880;46.082;18.234;2023-08-30T00:10:07;98466.06;;;19.88;71.43
78584;BME280;67880;46.082;18.234;2023-08-30T00:10:42;98463.09;;;19.90;71.07
78584;BME280;67880;46.082;18.234;2023-08-30T00:11:15;98466.16;;;19.93;71.11
78584;BME280;67880;46.082;18.234;2023-08-30T00:11:46;98463.44;;;19.93;71.61
78584;BME280;67880;46.082;18.234;2023-08-30T00:12:19;98457.41;;;19.91;71.50
78584;BME280;67880;46.082;18.234;2023-08-30T00:12:51;98470.22;;;19.91;71.51
78584;BME280;67880;46.082;18.234;2023-08-30T00:13:23;98459.53;;;19.89;71.83
78584;BME280;67880;46.082;18.234;2023-08-30T00:14:02;98460.53;;;19.83;71.84
78584;BME280;67880;46.082;18.234;2023-08-30T00:14:35;98457.25;;;19.81;72.34
78584;BME280;67880;46.082;18.234;2023-08-30T00:15:08;98462.59;;;19.76;72.22
78584;BME280;67880;46.082;18.234;2023-08-30T00:15:41;98465.00;;;19.72;72.53
78584;BME280;67880;46.082;18.234;2023-08-30T00:16:13;98462.53;;;19.71;72.41
78584;BME280;67880;46.082;18.234;2023-08-30T00:16:48;98469.84;;;19.70;72.34
78584;BME280;67880;46.082;18.234;2023-08-30T00:17:20;98475.97;;;19.61;73.27
78584;BME280;67880;46.082;18.234;2023-08-30T00:17:53;98470.63;;;19.66;72.58
78584;BME280;67880;46.082;18.234;2023-08-30T00:18:25;98467.66;;;19.67;72.87
78584;BME280;67880;46.082;18.234;2023-08-30T00:18:57;98465.91;;;19.61;72.58
78584;BME280;67880;46.082;18.234;2023-08-30T00:19:29;98464.97;;;19.56;73.12
78584;BME280;67880;46.082;18.234;2023-08-30T00:20:01;98468.50;;;19.56;73.72
78584;BME280;67880;46.082;18.234;2023-08-30T00:20:33;98466.41;;;19.58;73.35
78584;BME280;67880;46.082;18.234;2023-08-30T00:21:05;98465.09;;;19.61;73.16
78584;BME280;67880;46.082;18.234;2023-08-30T00:21:38;98468.38;;;19.63;73.60
78584;BME280;67880;46.082;18.234;2023-08-30T00:22:10;98464.34;;;19.65;73.41
78584;BME280;67880;46.082;18.234;2023-08-30T00:22:43;98463.28;;;19.66;73.32
78584;BME280;67880;46.082;18.234;2023-08-30T00:23:15;98463.53;;;19.65;73.35
78584;BME280;67880;46.082;18.234;2023-08-30T00:23:48;98461.38;;;19.67;72.87
78584;BME280;67880;46.082;18.234;2023-08-30T00:24:20;98457.56;;;19.68;72.87
78584;BME280;67880;46.082;18.234;2023-08-30T00:24:52;98454.59;;;19.69;73.16
78584;BME280;67880;46.082;18.234;2023-08-30T00:25:24;98460.88;;;19.70;73.56
78584;BME280;67880;46.082;18.234;2023-08-30T00:25:56;98446.38;;;19.64;73.99
78584;BME280;67880;46.082;18.234;2023-08-30T00:26:28;98452.63;;;19.65;73.71
78584;BME280;67880;46.082;18.234;2023-08-30T00:27:03;98449.56;;;19.61;73.92
78584;BME280;67880;46.082;18.234;2023-08-30T00:27:35;98451.47;;;19.61;74.14
78584;BME280;67880;46.082;18.234;2023-08-30T00:28:07;98449.00;;;19.59;74.24
78584;BME280;67880;46.082;18.234;2023-08-30T00:28:39;98448.38;;;19.57;73.92
78584;BME280;67880;46.082;18.234;2023-08-30T00:29:11;98449.22;;;19.58;74.41
78584;BME280;67880;46.082;18.234;2023-08-30T00:29:43;98453.25;;;19.55;74.03
78584;BME280;67880;46.082;18.234;2023-08-30T00:30:15;98454.06;;;19.56;74.39
78584;BME280;67880;46.082;18.234;2023-08-30T00:30:54;98454.06;;;19.56;74.53
78584;BME280;67880;46.082;18.234;2023-08-30T00:31:27;98449.38;;;19.51;74.65
78584;BME280;67880;46.082;18.234;2023-08-30T00:31:59;98451.50;;;19.49;74.69
78584;BME280;67880;46.082;18.234;2023-08-30T00:32:31;98455.31;;;19.48;74.86
78584;BME280;67880;46.082;18.234;2023-08-30T00:33:04;98454.75;;;19.46;74.78
78584;BME280;67880;46.082;18.234;2023-08-30T00:33:36;98467.44;;;19.40;74.79
78584;BME280;67880;46.082;18.234;2023-08-30T00:34:07;98458.66;;;19.38;75.38
78584;BME280;67880;46.082;18.234;2023-08-30T00:34:39;98463.28;;;19.38;75.71
78584;BME280;67880;46.082;18.234;2023-08-30T00:35:11;98458.59;;;19.33;75.11
78584;BME280;67880;46.082;18.234;2023-08-30T00:35:43;98463.44;;;19.31;75.17
78584;BME280;67880;46.082;18.234;2023-08-30T00:36:15;98461.81;;;19.30;75.40
78584;BME280;67880;46.082;18.234;2023-08-30T00:36:50;98457.44;;;19.29;74.82
78584;BME280;67880;46.082;18.234;2023-08-30T00:37:23;98464.19;;;19.27;75.21
78584;BME280;67880;46.082;18.234;2023-08-30T00:37:55;98465.03;;;19.27;74.69
78584;BME280;67880;46.082;18.234;2023-08-30T00:38:28;98463.84;;;19.23;74.83
78584;BME280;67880;46.082;18.234;2023-08-30T00:39:00;98458.09;;;19.19;74.80
78584;BME280;67880;46.082;18.234;2023-08-30T00:39:32;98465.22;;;19.09;75.70
78584;BME280;67880;46.082;18.234;2023-08-30T00:40:05;98463.69;;;19.13;75.43
78584;BME280;67880;46.082;18.234;2023-08-30T00:40:39;98460.09;;;19.12;75.36
78584;BME280;67880;46.082;18.234;2023-08-30T00:41:11;98462.00;;;19.12;75.45
78584;BME280;67880;46.082;18.234;2023-08-30T00:41:43;98460.63;;;19.09;75.49
78584;BME280;67880;46.082;18.234;2023-08-30T00:42:15;98457.53;;;19.06;75.89
78584;BME280;67880;46.082;18.234;2023-08-30T00:42:47;98457.47;;;19.01;76.15
78584;BME280;67880;46.082;18.234;2023-08-30T00:43:20;98454.97;;;18.99;76.49
78584;BME280;67880;46.082;18.234;2023-08-30T00:43:52;98454.97;;;18.99;76.28
78584;BME280;67880;46.082;18.234;2023-08-30T00:44:24;98450.59;;;18.98;76.37
78584;BME280;67880;46.082;18.234;2023-08-30T00:44:56;98458.75;;;18.98;75.95
78584;BME280;67880;46.082;18.234;2023-08-30T00:45:28;98457.38;;;18.96;76.37
78584;BME280;67880;46.082;18.234;2023-08-30T00:46:00;98451.81;;;18.90;76.77
78584;BME280;67880;46.082;18.234;2023-08-30T00:46:33;98445.56;;;18.90;76.77
78584;BME280;67880;46.082;18.234;2023-08-30T00:47:05;98449.34;;;18.89;76.83
78584;BME280;67880;46.082;18.234;2023-08-30T00:47:37;98448.28;;;18.90;76.90
78584;BME280;67880;46.082;18.234;2023-08-30T00:48:10;98446.13;;;18.92;76.79
78584;BME280;67880;46.082;18.234;2023-08-30T00:48:44;98447.78;;;18.93;76.26
78584;BME280;67880;46.082;18.234;2023-08-30T00:49:17;98453.47;;;18.91;76.18
78584;BME280;67880;46.082;18.234;2023-08-30T00:49:49;98452.66;;;18.91;76.56
78584;BME280;67880;46.082;18.234;2023-08-30T00:50:21;98446.38;;;18.90;75.91
78584;BME280;67880;46.082;18.234;2023-08-30T00:50:53;98445.56;;;18.90;76.55
78584;BME280;67880;46.082;18.234;2023-08-30T00:51:25;98455.03;;;18.87;76.26
78584;BME280;67880;46.082;18.234;2023-08-30T00:52:00;98448.41;;;18.83;76.40
78584;BME280;67880;46.082;18.234;2023-08-30T00:52:33;98445.72;;;18.83;76.80
78584;BME280;67880;46.082;18.234;2023-08-30T00:53:06;98456.09;;;18.86;75.87
78584;BME280;67880;46.082;18.234;2023-08-30T00:53:39;98453.63;;;18.85;76.10
78584;BME280;67880;46.082;18.234;2023-08-30T00:54:11;98456.59;;;18.83;75.87
78584;BME280;67880;46.082;18.234;2023-08-30T00:54:43;98459.88;;;18.85;76.17
78584;BME280;67880;46.082;18.234;2023-08-30T00:55:15;98456.59;;;18.83;76.11
78584;BME280;67880;46.082;18.234;2023-08-30T00:55:47;98456.00;;;18.81;75.90
78584;BME280;67880;46.082;18.234;2023-08-30T00:56:20;98463.34;;;18.81;75.68
78584;BME280;67880;46.082;18.234;2023-08-30T00:56:52;98460.00;;;18.79;75.73
78584;BME280;67880;46.082;18.234;2023-08-30T00:57:25;98457.53;;;18.77;75.87
78584;BME280;67880;46.082;18.234;2023-08-30T00:57:57;98457.94;;;18.69;75.74
78584;BME280;67880;46.082;18.234;2023-08-30T00:58:29;98476.72;;;18.71;75.63
78584;BME280;67880;46.082;18.234;2023-08-30T00:59:01;98469.38;;;18.71;75.96
78584;BME280;67880;46.082;18.234;2023-08-30T00:59:33;98466.19;;;18.74;75.46
78584;BME280;67880;46.082;18.234;2023-08-30T01:00:06;98468.91;;;18.74;75.70
78584;BME280;67880;46.082;18.234;2023-08-30T01:00:39;98467.50;;;18.72;75.20
78584;BME280;67880;46.082;18.234;2023-08-30T01:01:11;98474.81;;;18.71;76.00
78584;BME280;67880;46.082;18.234;2023-08-30T01:01:46;98480.50;;;18.70;75.76
78584;BME280;67880;46.082;18.234;2023-08-30T01:02:17;98481.78;;;18.67;75.24
78584;BME280;67880;46.082;18.234;2023-08-30T01:02:50;98480.97;;;18.66;75.34
78584;BME280;67880;46.082;18.234;2023-08-30T01:03:22;98486.19;;;18.68;75.50
78584;BME280;67880;46.082;18.234;2023-08-30T01:03:54;98476.56;;;18.65;75.36
78584;BME280;67880;46.082;18.234;2023-08-30T01:04:27;98482.50;;;18.62;75.65
78584;BME280;67880;46.082;18.234;2023-08-30T01:04:59;98484.41;;;18.62;75.39
78584;BME280;67880;46.082;18.234;2023-08-30T01:05:31;98486.50;;;18.60;75.53
78584;BME280;67880;46.082;18.234;2023-08-30T01:06:03;98482.41;;;18.57;75.86
78584;BME280;67880;46.082;18.234;2023-08-30T01:06:35;98486.44;;;18.55;75.97
78584;BME280;67880;46.082;18.234;2023-08-30T01:07:07;98486.06;;;18.51;76.48
78584;BME280;67880;46.082;18.234;2023-08-30T01:07:40;98492.34;;;18.52;76.54
78584;BME280;67880;46.082;18.234;2023-08-30T01:08:12;98488.78;;;18.51;76.79
78584;BME280;67880;46.082;18.234;2023-08-30T01:08:44;98488.81;;;18.39;76.83
78584;BME280;67880;46.082;18.234;2023-08-30T01:09:16;98489.06;;;18.38;77.37
78584;BME280;67880;46.082;18.234;2023-08-30T01:09:48;98480.53;;;18.34;77.43
78584;BME280;67880;46.082;18.234;2023-08-30T01:10:27;98498.28;;;18.37;77.95
78584;BME280;67880;46.082;18.234;2023-08-30T01:11:18;98495.31;;;18.38;77.73
78584;BME280;67880;46.082;18.234;2023-08-30T01:12:39;98483.72;;;18.43;77.42
78584;BME280;67880;46.082;18.234;2023-08-30T01:13:18;98492.72;;;18.44;76.80
78584;BME280;67880;46.082;18.234;2023-08-30T01:14:00;98489.28;;;18.36;76.99
78584;BME280;67880;46.082;18.234;2023-08-30T01:15:00;98502.06;;;18.36;76.68
78584;BME280;67880;46.082;18.234;2023-08-30T01:15:37;98496.38;;;18.37;77.19
78584;BME280;67880;46.082;18.234;2023-08-30T01:16:11;98497.19;;;18.38;77.42
78584;BME280;67880;46.082;18.234;2023-08-30T01:16:44;98492.59;;;18.38;77.02
78584;BME280;67880;46.082;18.234;2023-08-30T01:17:17;98493.28;;;18.34;77.39
78584;BME280;67880;46.082;18.234;2023-08-30T01:17:52;98492.72;;;18.32;77.27
78584;BME280;67880;46.082;18.234;2023-08-30T01:18:29;98485.25;;;18.27;77.32
78584;BME280;67880;46.082;18.234;2023-08-30T01:19:46;98489.06;;;18.26;77.21
78584;BME280;67880;46.082;18.234;2023-08-30T01:20:23;98487.66;;;18.24;77.13
78584;BME280;67880;46.082;18.234;2023-08-30T01:21:01;98479.50;;;18.24;77.11
78584;BME280;67880;46.082;18.234;2023-08-30T01:21:50;98480.56;;;18.23;77.45
78584;BME280;67880;46.082;18.234;2023-08-30T01:24:16;98472.63;;;18.09;78.49
78584;BME280;67880;46.082;18.234;2023-08-30T01:26:09;98475.59;;;18.20;78.47
78584;BME280;67880;46.082;18.234;2023-08-30T01:27:09;98479.97;;;18.21;78.07
78584;BME280;67880;46.082;18.234;2023-08-30T01:27:45;98486.00;;;18.23;77.78
78584;BME280;67880;46.082;18.234;2023-08-30T01:28:22;98484.94;;;18.24;77.71
78584;BME280;67880;46.082;18.234;2023-08-30T01:28:57;98480.09;;;18.14;78.38
78584;BME280;67880;46.082;18.234;2023-08-30T01:29:33;98483.16;;;18.18;78.30
78584;BME280;67880;46.082;18.234;2023-08-30T01:30:08;98483.75;;;18.20;77.88
78584;BME280;67880;46.082;18.234;2023-08-30T01:30:42;98483.38;;;18.16;77.90
78584;BME280;67880;46.082;18.234;2023-08-30T01:31:16;98480.09;;;18.14;77.63
78584;BME280;67880;46.082;18.234;2023-08-30T01:31:49;98484.44;;;18.15;77.48
78584;BME280;67880;46.082;18.234;2023-08-30T01:32:22;98486.22;;;18.09;77.50
78584;BME280;67880;46.082;18.234;2023-08-30T01:33:00;98485.38;;;18.09;78.17
78584;BME280;67880;46.082;18.234;2023-08-30T01:33:34;98491.66;;;18.09;78.14
78584;BME280;67880;46.082;18.234;2023-08-30T01:34:08;98493.09;;;18.12;77.98
78584;BME280;67880;46.082;18.234;2023-08-30T01:34:43;98500.66;;;18.10;77.65
78584;BME280;67880;46.082;18.234;2023-08-30T01:35:17;98501.59;;;18.04;77.28
78584;BME280;67880;46.082;18.234;2023-08-30T01:35:54;98493.56;;;17.97;77.75
78584;BME280;67880;46.082;18.234;2023-08-30T01:36:27;98499.91;;;18.03;78.15
78584;BME280;67880;46.082;18.234;2023-08-30T01:36:59;98502.88;;;18.01;77.85
78584;BME280;67880;46.082;18.234;2023-08-30T01:37:32;98499.91;;;18.03;77.22
78584;BME280;67880;46.082;18.234;2023-08-30T01:38:06;98499.56;;;17.99;77.69
78584;BME280;67880;46.082;18.234;2023-08-30T01:38:40;98496.41;;;17.91;78.43
78584;BME280;67880;46.082;18.234;2023-08-30T01:39:14;98499.94;;;17.91;77.86
78584;BME280;67880;46.082;18.234;2023-08-30T01:39:48;98502.41;;;17.93;77.90
78584;BME280;67880;46.082;18.234;2023-08-30T01:40:21;98504.19;;;17.99;77.70
78584;BME280;67880;46.082;18.234;2023-08-30T01:40:55;98504.63;;;17.96;77.64
78584;BME280;67880;46.082;18.234;2023-08-30T01:41:30;98500.16;;;17.90;78.21
78584;BME280;67880;46.082;18.234;2023-08-30T01:42:03;98496.16;;;17.92;77.88
78584;BME280;67880;46.082;18.234;2023-08-30T01:42:37;98498.38;;;17.95;78.12
78584;BME280;67880;46.082;18.234;2023-08-30T01:43:11;98498.25;;;17.90;77.84
78584;BME280;67880;46.082;18.234;2023-08-30T01:43:44;98499.69;;;17.93;78.32
78584;BME280;67880;46.082;18.234;2023-08-30T01:44:16;98500.16;;;17.90;78.34
78584;BME280;67880;46.082;18.234;2023-08-30T01:44:51;98502.03;;;17.89;78.32
78584;BME280;67880;46.082;18.234;2023-08-30T01:45:28;98508.09;;;17.91;78.84
78584;BME280;67880;46.082;18.234;2023-08-30T01:46:01;98506.41;;;17.90;78.93
78584;BME280;67880;46.082;18.234;2023-08-30T01:46:35;98507.25;;;17.91;78.54
78584;BME280;67880;46.082;18.234;2023-08-30T01:47:08;98504.16;;;17.87;78.79
78584;BME280;67880;46.082;18.234;2023-08-30T01:47:42;98504.31;;;17.92;78.78
78584;BME280;67880;46.082;18.234;2023-08-30T01:48:17;98507.59;;;17.94;78.44
78584;BME280;67880;46.082;18.234;2023-08-30T01:48:50;98499.69;;;17.93;77.95
78584;BME280;67880;46.082;18.234;2023-08-30T01:49:24;98506.53;;;17.95;77.83
78584;BME280;67880;46.082;18.234;2023-08-30T01:49:57;98505.25;;;17.98;77.88
78584;BME280;67880;46.082;18.234;2023-08-30T01:50:30;98508.19;;;17.96;78.74
78584;BME280;67880;46.082;18.234;2023-08-30T01:51:03;98509.00;;;17.97;78.22
78584;BME280;67880;46.082;18.234;2023-08-30T01:51:37;98503.81;;;17.95;78.44
78584;BME280;67880;46.082;18.234;2023-08-30T01:52:10;98503.00;;;17.95;78.24
78584;BME280;67880;46.082;18.234;2023-08-30T01:52:43;98508.41;;;17.95;78.84
78584;BME280;67880;46.082;18.234;2023-08-30T01:53:15;98508.91;;;17.92;78.88
78584;BME280;67880;46.082;18.234;2023-08-30T01:53:50;98502.41;;;17.93;78.40
78584;BME280;67880;46.082;18.234;2023-08-30T01:54:24;98497.66;;;17.88;79.02
78584;BME280;67880;46.082;18.234;2023-08-30T01:54:57;98493.66;;;17.79;79.19
78584;BME280;67880;46.082;18.234;2023-08-30T01:55:30;98502.88;;;17.78;79.31
78584;BME280;67880;46.082;18.234;2023-08-30T01:56:04;98506.88;;;17.75;79.79
78584;BME280;67880;46.082;18.234;2023-08-30T01:56:36;98503.47;;;17.80;79.63
78584;BME280;67880;46.082;18.234;2023-08-30T01:57:08;98503.59;;;17.85;79.51
78584;BME280;67880;46.082;18.234;2023-08-30T01:57:40;98493.41;;;17.80;79.39
78584;BME280;67880;46.082;18.234;2023-08-30T01:58:12;98503.34;;;17.86;79.10
78584;BME280;67880;46.082;18.234;2023-08-30T01:58:44;98506.06;;;17.86;79.08
78584;BME280;67880;46.082;18.234;2023-08-30T01:59:16;98500.03;;;17.84;79.22
78584;BME280;67880;46.082;18.234;2023-08-30T01:59:48;98511.50;;;17.86;79.08
78584;BME280;67880;46.082;18.234;2023-08-30T02:00:20;98500.03;;;17.84;78.97
78584;BME280;67880;46.082;18.234;2023-08-30T02:00:53;98508.19;;;17.84;79.21
78584;BME280;67880;46.082;18.234;2023-08-30T02:01:25;98510.28;;;17.82;79.77
78584;BME280;67880;46.082;18.234;2023-08-30T02:01:57;98509.13;;;17.78;79.68
78584;BME280;67880;46.082;18.234;2023-08-30T02:02:29;98512.06;;;17.77;79.70
78584;BME280;67880;46.082;18.234;2023-08-30T02:03:10;98503.81;;;17.72;79.57
78584;BME280;67880;46.082;18.234;2023-08-30T02:03:44;98503.81;;;17.72;79.83
78584;BME280;67880;46.082;18.234;2023-08-30T02:04:17;98504.16;;;17.75;79.89
78584;BME280;67880;46.082;18.234;2023-08-30T02:04:48;98515.84;;;17.76;79.76
78584;BME280;67880;46.082;18.234;2023-08-30T02:05:20;98504.97;;;17.76;79.86
78584;BME280;67880;46.082;18.234;2023-08-30T02:06:18;98509.13;;;17.78;79.69
78584;BME280;67880;46.082;18.234;2023-08-30T02:07:42;98502.88;;;17.78;79.99
78584;BME280;67880;46.082;18.234;2023-08-30T02:08:16;98509.13;;;17.78;79.76
78584;BME280;67880;46.082;18.234;2023-08-30T02:09:09;98516.44;;;17.78;79.68
78584;BME280;67880;46.082;18.234;2023-08-30T02:10:26;98507.25;;;17.79;79.81
78584;BME280;67880;46.082;18.234;2023-08-30T02:11:02;98515.97;;;17.81;79.87
78584;BME280;67880;46.082;18.234;2023-08-30T02:11:37;98515.38;;;17.79;80.06
78584;BME280;67880;46.082;18.234;2023-08-30T02:12:14;98520.81;;;17.79;80.33
78584;BME280;67880;46.082;18.234;2023-08-30T02:12:48;98516.22;;;17.79;80.21
78584;BME280;67880;46.082;18.234;2023-08-30T02:13:25;98518.31;;;17.77;79.46
78584;BME280;67880;46.082;18.234;2023-08-30T02:13:59;98519.38;;;17.76;80.03
78584;BME280;67880;46.082;18.234;2023-08-30T02:14:33;98517.97;;;17.74;80.19
78584;BME280;67880;46.082;18.234;2023-08-30T02:15:07;98513.59;;;17.73;79.81
78584;BME280;67880;46.082;18.234;2023-08-30T02:15:41;98513.94;;;17.76;80.26
78584;BME280;67880;46.082;18.234;2023-08-30T02:16:17;98517.03;;;17.80;80.60
78584;BME280;67880;46.082;18.234;2023-08-30T02:16:51;98515.72;;;17.82;79.77
78584;BME280;67880;46.082;18.234;2023-08-30T02:17:24;98517.75;;;17.87;80.45
78584;BME280;67880;46.082;18.234;2023-08-30T02:17:56;98526.13;;;17.85;80.68
78584;BME280;67880;46.082;18.234;2023-08-30T02:18:29;98518.00;;;17.85;80.38
78584;BME280;67880;46.082;18.234;2023-08-30T02:19:04;98517.50;;;17.89;80.19
78584;BME280;67880;46.082;18.234;2023-08-30T02:19:36;98529.19;;;17.89;80.04
78584;BME280;67880;46.082;18.234;2023-08-30T02:20:09;98525.41;;;17.90;80.24
78584;BME280;67880;46.082;18.234;2023-08-30T02:20:41;98529.56;;;17.93;80.16
78584;BME280;67880;46.082;18.234;2023-08-30T02:21:13;98530.97;;;17.95;79.76
78584;BME280;67880;46.082;18.234;2023-08-30T02:21:45;98525.78;;;17.94;79.70
78584;BME280;67880;46.082;18.234;2023-08-30T02:22:17;98528.00;;;17.97;79.93
78584;BME280;67880;46.082;18.234;2023-08-30T02:22:50;98532.03;;;17.94;79.60
78584;BME280;67880;46.082;18.234;2023-08-30T02:23:24;98530.38;;;17.93;79.54
78584;BME280;67880;46.082;18.234;2023-08-30T02:23:57;98531.44;;;17.92;79.78
78584;BME280;67880;46.082;18.234;2023-08-30T02:24:28;98532.28;;;17.93;79.03
78584;BME280;67880;46.082;18.234;2023-08-30T02:25:01;98529.31;;;17.94;79.33
78584;BME280;67880;46.082;18.234;2023-08-30T02:25:36;98531.81;;;17.84;79.90
78584;BME280;67880;46.082;18.234;2023-08-30T02:26:08;98533.66;;;17.83;80.21
78584;BME280;67880;46.082;18.234;2023-08-30T02:26:40;98526.44;;;17.77;80.12
78584;BME280;67880;46.082;18.234;2023-08-30T02:27:12;98535.22;;;17.79;79.99
78584;BME280;67880;46.082;18.234;2023-08-30T02:27:44;98532.00;;;17.82;80.53
78584;BME280;67880;46.082;18.234;2023-08-30T02:28:16;98529.16;;;17.77;80.34
78584;BME280;67880;46.082;18.234;2023-08-30T02:28:48;98527.66;;;17.81;79.96
78584;BME280;67880;46.082;18.234;2023-08-30T02:29:20;98528.22;;;17.83;80.42
78584;BME280;67880;46.082;18.234;2023-08-30T02:29:52;98527.28;;;17.90;80.27
78584;BME280;67880;46.082;18.234;2023-08-30T02:30:24;98523.88;;;17.94;79.98
78584;BME280;67880;46.082;18.234;2023-08-30T02:30:56;98527.19;;;17.96;79.70
78584;BME280;67880;46.082;18.234;2023-08-30T02:31:28;98529.06;;;17.96;80.02
78584;BME280;67880;46.082;18.234;2023-08-30T02:32:00;98522.00;;;17.95;80.35
78584;BME280;67880;46.082;18.234;2023-08-30T02:32:32;98523.88;;;17.94;80.54
78584;BME280;67880;46.082;18.234;2023-08-30T02:33:04;98525.28;;;17.97;80.28
78584;BME280;67880;46.082;18.234;2023-08-30T02:33:36;98529.22;;;18.01;79.75
78584;BME280;67880;46.082;18.234;2023-08-30T02:34:11;98530.41;;;18.05;80.10
78584;BME280;67880;46.082;18.234;2023-08-30T02:34:43;98523.78;;;18.01;79.71
78584;BME280;67880;46.082;18.234;2023-08-30T02:35:15;98521.63;;;18.03;79.50
78584;BME280;67880;46.082;18.234;2023-08-30T02:35:47;98523.91;;;18.06;79.78
78584;BME280;67880;46.082;18.234;2023-08-30T02:36:19;98529.91;;;18.08;79.34
78584;BME280;67880;46.082;18.234;2023-08-30T02:36:51;98523.78;;;18.12;79.34
78584;BME280;67880;46.082;18.234;2023-08-30T02:37:23;98528.97;;;18.14;78.97
78584;BME280;67880;46.082;18.234;2023-08-30T02:37:55;98521.06;;;18.12;79.45
78584;BME280;67880;46.082;18.234;2023-08-30T02:38:28;98512.44;;;18.16;79.02
78584;BME280;67880;46.082;18.234;2023-08-30T02:39:00;98508.19;;;18.20;78.59
78584;BME280;67880;46.082;18.234;2023-08-30T02:39:32;98521.31;;;18.23;78.88
78584;BME280;67880;46.082;18.234;2023-08-30T02:40:04;98515.66;;;18.24;79.10
78584;BME280;67880;46.082;18.234;2023-08-30T02:40:36;98514.56;;;18.25;78.50
78584;BME280;67880;46.082;18.234;2023-08-30T02:41:08;98509.38;;;18.24;78.65
78584;BME280;67880;46.082;18.234;2023-08-30T02:41:42;98516.72;;;18.23;78.90
78584;BME280;67880;46.082;18.234;2023-08-30T02:42:14;98513.75;;;18.25;78.89
78584;BME280;67880;46.082;18.234;2023-08-30T02:42:46;98515.66;;;18.24;79.08
78584;BME280;67880;46.082;18.234;2023-08-30T02:43:18;98527.09;;;18.26;78.66
78584;BME280;67880;46.082;18.234;2023-08-30T02:43:49;98508.78;;;18.22;78.58
78584;BME280;67880;46.082;18.234;2023-08-30T02:44:21;98516.59;;;18.18;79.18
78584;BME280;67880;46.082;18.234;2023-08-30T02:44:53;98509.38;;;18.24;79.28
78584;BME280;67880;46.082;18.234;2023-08-30T02:45:25;98508.44;;;18.30;79.36
78584;BME280;67880;46.082;18.234;2023-08-30T02:45:57;98504.28;;;18.27;79.15
78584;BME280;67880;46.082;18.234;2023-08-30T02:46:29;98508.19;;;18.31;78.82
78584;BME280;67880;46.082;18.234;2023-08-30T02:47:01;98506.53;;;18.30;79.24
78584;BME280;67880;46.082;18.234;2023-08-30T02:47:33;98508.91;;;18.27;79.50
78584;BME280;67880;46.082;18.234;2023-08-30T02:48:06;98507.63;;;18.29;79.08
78584;BME280;67880;46.082;18.234;2023-08-30T02:48:38;98505.22;;;18.33;79.56
78584;BME280;67880;46.082;18.234;2023-08-30T02:49:10;98512.56;;;18.32;79.20
78584;BME280;67880;46.082;18.234;2023-08-30T02:49:43;98510.91;;;18.31;79.19
78584;BME280;67880;46.082;18.234;2023-08-30T02:50:14;98508.91;;;18.27;80.08
78584;BME280;67880;46.082;18.234;2023-08-30T02:50:47;98520.47;;;18.34;79.42
78584;BME280;67880;46.082;18.234;2023-08-30T02:51:19;98515.97;;;18.39;78.83
78584;BME280;67880;46.082;18.234;2023-08-30T02:51:51;98515.97;;;18.39;79.15
78584;BME280;67880;46.082;18.234;2023-08-30T02:52:23;98511.38;;;18.40;78.56
78584;BME280;67880;46.082;18.234;2023-08-30T02:52:55;98514.44;;;18.44;78.49
78584;BME280;67880;46.082;18.234;2023-08-30T02:53:27;98518.56;;;18.46;78.05
78584;BME280;67880;46.082;18.234;2023-08-30T02:53:59;98515.50;;;18.43;78.26
78584;BME280;67880;46.082;18.234;2023-08-30T02:54:31;98510.22;;;18.36;78.30
78584;BME280;67880;46.082;18.234;2023-08-30T02:55:03;98514.31;;;18.38;78.30
78584;BME280;67880;46.082;18.234;2023-08-30T02:55:35;98505.09;;;18.39;78.28
78584;BME280;67880;46.082;18.234;2023-08-30T02:56:07;98514.31;;;18.38;78.69
78584;BME280;67880;46.082;18.234;2023-08-30T02:56:40;98514.91;;;18.40;78.94
78584;BME280;67880;46.082;18.234;2023-08-30T02:57:14;98512.81;;;18.43;79.18
78584;BME280;67880;46.082;18.234;2023-08-30T02:57:46;98510.91;;;18.43;79.05
78584;BME280;67880;46.082;18.234;2023-08-30T02:58:18;98512.56;;;18.44;79.61
78584;BME280;67880;46.082;18.234;2023-08-30T02:58:50;98508.78;;;18.45;79.71
78584;BME280;67880;46.082;18.234;2023-08-30T02:59:22;98522.81;;;18.54;79.34
78584;BME280;67880;46.082;18.234;2023-08-30T02:59:54;98515.25;;;18.56;78.91
78584;BME280;67880;46.082;18.234;2023-08-30T03:00:26;98522.91;;;18.59;79.09
78584;BME280;67880;46.082;18.234;2023-08-30T03:00:58;98519.75;;;18.62;79.07